sensor_id;sensor_type;location;lat;lon;timestamp;temperature;humidity
52181;DHT22;38158;53.338;6.514;2023-12-20T00:00:59;5.50;99.90
52181;DHT22;38158;53.338;6.514;2023-12-20T00:03:25;5.60;99.90
52181;DHT22;38158;53.338;6.514;2023-12-20T00:05:51;6.80;99.90
52181;DHT22;38158;53.338;6.514;2023-12-20T00:08:17;5.80;99.90
52181;DHT22;38158;53.338;6.514;2023-12-20T00:10:43;5.80;99.90
52181;DHT22;38158;53.338;6.514;2023-12-20T00:13:09;5.50;99.90
52181;DHT22;38158;53.338;6.514;2023-12-20T00:15:35;5.50;99.90
52181;DHT22;38158;53.338;6.514;2023-12-20T00:18:01;6.00;99.90
52181;DHT22;38158;53.338;6.514;2023-12-20T00:20:28;5.50;99.90
52181;DHT22;38158;53.338;6.514;2023-12-20T00:22:56;5.40;99.90
52181;DHT22;38158;53.338;6.514;2023-12-20T00:25:23;5.50;99.90
52181;DHT22;38158;53.338;6.514;2023-12-20T00:27:49;6.30;99.90
52181;DHT22;38158;53.338;6.514;2023-12-20T00:30:15;5.40;99.90
52181;DHT22;38158;53.338;6.514;2023-12-20T00:32:40;6.00;99.90
52181;DHT22;38158;53.338;6.514;2023-12-20T00:35:12;6.10;99.90
52181;DHT22;38158;53.338;6.514;2023-12-20T00:37:38;5.40;99.90
52181;DHT22;38158;53.338;6.514;2023-12-20T00:40:05;6.70;99.90
52181;DHT22;38158;53.338;6.514;2023-12-20T00:42:32;5.50;99.90
52181;DHT22;38158;53.338;6.514;2023-12-20T00:44:58;5.50;99.90
52181;DHT22;38158;53.338;6.514;2023-12-20T00:47:24;5.70;99.90
52181;DHT22;38158;53.338;6.514;2023-12-20T00:49:50;5.60;99.90
52181;DHT22;38158;53.338;6.514;2023-12-20T00:52:15;6.70;99.90
52181;DHT22;38158;53.338;6.514;2023-12-20T00:54:43;5.60;99.90
52181;DHT22;38158;53.338;6.514;2023-12-20T00:57:09;5.70;99.90
52181;DHT22;38158;53.338;6.514;2023-12-20T00:59:35;5.60;99.90
52181;DHT22;38158;53.338;6.514;2023-12-20T01:02:01;5.60;99.90
52181;DHT22;38158;53.338;6.514;2023-12-20T01:04:26;5.60;99.90
52181;DHT22;38158;53.338;6.514;2023-12-20T01:06:52;5.70;99.90
52181;DHT22;38158;53.338;6.514;2023-12-20T01:09:18;5.60;99.90
52181;DHT22;38158;53.338;6.514;2023-12-20T01:11:44;5.50;99.90
52181;DHT22;38158;53.338;6.514;2023-12-20T01:14:11;5.60;99.90
52181;DHT22;38158;53.338;6.514;2023-12-20T01:16:37;5.50;99.90
52181;DHT22;38158;53.338;6.514;2023-12-20T01:19:03;6.10;99.90
52181;DHT22;38158;53.338;6.514;2023-12-20T01:21:28;6.80;99.90
52181;DHT22;38158;53.338;6.514;2023-12-20T01:23:54;5.90;99.90
52181;DHT22;38158;53.338;6.514;2023-12-20T01:26:19;5.80;99.90
52181;DHT22;38158;53.338;6.514;2023-12-20T01:28:45;5.60;99.90
52181;DHT22;38158;53.338;6.514;2023-12-20T01:31:11;5.60;99.90
52181;DHT22;38158;53.338;6.514;2023-12-20T01:33:36;5.60;99.90
52181;DHT22;38158;53.338;6.514;2023-12-20T01:36:03;5.60;99.90
52181;DHT22;38158;53.338;6.514;2023-12-20T01:38:29;5.60;99.90
52181;DHT22;38158;53.338;6.514;2023-12-20T01:40:54;5.60;99.90
52181;DHT22;38158;53.338;6.514;2023-12-20T01:43:20;5.60;99.90
52181;DHT22;38158;53.338;6.514;2023-12-20T01:45:47;6.40;99.90
52181;DHT22;38158;53.338;6.514;2023-12-20T01:48:14;6.40;99.90
52181;DHT22;38158;53.338;6.514;2023-12-20T01:50:41;5.60;99.90
52181;DHT22;38158;53.338;6.514;2023-12-20T01:53:08;5.50;99.90
52181;DHT22;38158;53.338;6.514;2023-12-20T01:55:36;6.50;99.90
52181;DHT22;38158;53.338;6.514;2023-12-20T01:58:02;5.60;99.90
52181;DHT22;38158;53.338;6.514;2023-12-20T02:00:29;5.60;99.90
52181;DHT22;38158;53.338;6.514;2023-12-20T02:02:56;5.80;99.90
52181;DHT22;38158;53.338;6.514;2023-12-20T02:05:22;5.60;99.90
52181;DHT22;38158;53.338;6.514;2023-12-20T02:07:49;5.80;99.90
52181;DHT22;38158;53.338;6.514;2023-12-20T02:10:15;6.00;99.90
52181;DHT22;38158;53.338;6.514;2023-12-20T02:12:41;5.60;99.90
52181;DHT22;38158;53.338;6.514;2023-12-20T02:15:07;5.60;99.90
52181;DHT22;38158;53.338;6.514;2023-12-20T02:17:33;5.60;99.90
52181;DHT22;38158;53.338;6.514;2023-12-20T02:19:59;5.60;99.90
52181;DHT22;38158;53.338;6.514;2023-12-20T02:22:24;6.50;99.90
52181;DHT22;38158;53.338;6.514;2023-12-20T02:24:51;6.40;99.90
52181;DHT22;38158;53.338;6.514;2023-12-20T02:27:18;6.30;99.90
52181;DHT22;38158;53.338;6.514;2023-12-20T02:29:48;6.40;99.90
52181;DHT22;38158;53.338;6.514;2023-12-20T02:32:14;5.80;99.90
52181;DHT22;38158;53.338;6.514;2023-12-20T02:34:39;5.80;99.90
52181;DHT22;38158;53.338;6.514;2023-12-20T02:37:05;5.80;99.90
52181;DHT22;38158;53.338;6.514;2023-12-20T02:39:31;6.10;99.90
52181;DHT22;38158;53.338;6.514;2023-12-20T02:41:56;5.90;99.90
52181;DHT22;38158;53.338;6.514;2023-12-20T02:44:22;6.10;99.90
52181;DHT22;38158;53.338;6.514;2023-12-20T02:46:47;6.50;99.90
52181;DHT22;38158;53.338;6.514;2023-12-20T02:49:13;6.30;99.90
52181;DHT22;38158;53.338;6.514;2023-12-20T02:51:39;5.90;99.90
52181;DHT22;38158;53.338;6.514;2023-12-20T02:54:04;5.90;99.90
52181;DHT22;38158;53.338;6.514;2023-12-20T02:56:34;5.90;99.90
52181;DHT22;38158;53.338;6.514;2023-12-20T02:59:00;5.90;99.90
52181;DHT22;38158;53.338;6.514;2023-12-20T03:01:28;6.60;99.90
52181;DHT22;38158;53.338;6.514;2023-12-20T03:03:54;7.10;99.90
52181;DHT22;38158;53.338;6.514;2023-12-20T03:06:20;6.80;99.90
52181;DHT22;38158;53.338;6.514;2023-12-20T03:08:46;5.80;99.90
52181;DHT22;38158;53.338;6.514;2023-12-20T03:11:11;5.80;99.90
52181;DHT22;38158;53.338;6.514;2023-12-20T03:13:37;5.80;99.90
52181;DHT22;38158;53.338;6.514;2023-12-20T03:16:12;6.00;99.90
52181;DHT22;38158;53.338;6.514;2023-12-20T03:18:39;5.70;99.90
52181;DHT22;38158;53.338;6.514;2023-12-20T03:21:05;5.70;99.90
52181;DHT22;38158;53.338;6.514;2023-12-20T03:23:31;6.60;99.90
52181;DHT22;38158;53.338;6.514;2023-12-20T03:26:00;5.80;99.90
52181;DHT22;38158;53.338;6.514;2023-12-20T03:28:26;5.90;99.90
52181;DHT22;38158;53.338;6.514;2023-12-20T03:30:52;5.80;99.90
52181;DHT22;38158;53.338;6.514;2023-12-20T03:33:17;6.00;99.90
52181;DHT22;38158;53.338;6.514;2023-12-20T03:35:44;4.00;99.90
52181;DHT22;38158;53.338;6.514;2023-12-20T03:38:10;5.60;99.90
52181;DHT22;38158;53.338;6.514;2023-12-20T03:40:36;6.80;99.90
52181;DHT22;38158;53.338;6.514;2023-12-20T03:43:02;5.70;99.90
52181;DHT22;38158;53.338;6.514;2023-12-20T03:45:27;5.70;99.90
52181;DHT22;38158;53.338;6.514;2023-12-20T03:47:53;5.70;99.90
52181;DHT22;38158;53.338;6.514;2023-12-20T03:50:21;6.70;99.90
52181;DHT22;38158;53.338;6.514;2023-12-20T03:52:47;6.00;99.90
52181;DHT22;38158;53.338;6.514;2023-12-20T03:55:13;5.90;99.90
52181;DHT22;38158;53.338;6.514;2023-12-20T03:57:38;5.80;99.90
52181;DHT22;38158;53.338;6.514;2023-12-20T04:00:05;5.80;99.90
52181;DHT22;38158;53.338;6.514;2023-12-20T04:02:34;5.80;99.90
52181;DHT22;38158;53.338;6.514;2023-12-20T04:05:00;5.80;99.90
52181;DHT22;38158;53.338;6.514;2023-12-20T04:07:25;5.90;99.90
52181;DHT22;38158;53.338;6.514;2023-12-20T04:09:51;5.90;99.90
52181;DHT22;38158;53.338;6.514;2023-12-20T04:12:17;6.80;99.90
52181;DHT22;38158;53.338;6.514;2023-12-20T04:14:42;6.00;99.90
52181;DHT22;38158;53.338;6.514;2023-12-20T04:17:08;6.50;99.90
52181;DHT22;38158;53.338;6.514;2023-12-20T04:19:34;6.10;99.90
52181;DHT22;38158;53.338;6.514;2023-12-20T04:21:59;6.10;99.90
52181;DHT22;38158;53.338;6.514;2023-12-20T04:24:25;6.20;99.90
52181;DHT22;38158;53.338;6.514;2023-12-20T04:26:50;6.20;99.90
52181;DHT22;38158;53.338;6.514;2023-12-20T04:29:17;6.20;99.90
52181;DHT22;38158;53.338;6.514;2023-12-20T04:31:42;6.90;99.90
52181;DHT22;38158;53.338;6.514;2023-12-20T04:34:08;6.80;99.90
52181;DHT22;38158;53.338;6.514;2023-12-20T04:36:33;6.30;99.90
52181;DHT22;38158;53.338;6.514;2023-12-20T04:38:59;6.30;99.90
52181;DHT22;38158;53.338;6.514;2023-12-20T04:41:25;6.30;99.90
52181;DHT22;38158;53.338;6.514;2023-12-20T04:43:50;6.70;99.90
52181;DHT22;38158;53.338;6.514;2023-12-20T04:46:16;6.40;99.90
52181;DHT22;38158;53.338;6.514;2023-12-20T04:48:42;6.40;99.90
52181;DHT22;38158;53.338;6.514;2023-12-20T04:51:07;6.40;99.90
52181;DHT22;38158;53.338;6.514;2023-12-20T04:53:33;6.40;99.90
52181;DHT22;38158;53.338;6.514;2023-12-20T04:55:59;6.90;99.90
52181;DHT22;38158;53.338;6.514;2023-12-20T04:58:24;6.50;99.90
52181;DHT22;38158;53.338;6.514;2023-12-20T05:00:50;6.50;99.90
52181;DHT22;38158;53.338;6.514;2023-12-20T05:03:16;6.80;99.90
52181;DHT22;38158;53.338;6.514;2023-12-20T05:05:42;6.60;99.90
52181;DHT22;38158;53.338;6.514;2023-12-20T05:08:07;6.80;99.90
52181;DHT22;38158;53.338;6.514;2023-12-20T05:10:33;6.60;99.90
52181;DHT22;38158;53.338;6.514;2023-12-20T05:12:59;6.60;99.90
52181;DHT22;38158;53.338;6.514;2023-12-20T05:15:24;7.30;99.90
52181;DHT22;38158;53.338;6.514;2023-12-20T05:17:50;7.40;99.90
52181;DHT22;38158;53.338;6.514;2023-12-20T05:20:15;7.40;99.90
52181;DHT22;38158;53.338;6.514;2023-12-20T05:22:41;6.80;99.90
52181;DHT22;38158;53.338;6.514;2023-12-20T05:25:10;6.70;99.90
52181;DHT22;38158;53.338;6.514;2023-12-20T05:27:35;6.70;99.90
52181;DHT22;38158;53.338;6.514;2023-12-20T05:30:01;6.70;99.90
52181;DHT22;38158;53.338;6.514;2023-12-20T05:32:27;6.70;99.90
52181;DHT22;38158;53.338;6.514;2023-12-20T05:34:52;6.70;99.90
52181;DHT22;38158;53.338;6.514;2023-12-20T05:37:18;8.00;99.90
52181;DHT22;38158;53.338;6.514;2023-12-20T05:39:44;6.70;99.90
52181;DHT22;38158;53.338;6.514;2023-12-20T05:42:09;7.30;99.90
52181;DHT22;38158;53.338;6.514;2023-12-20T05:44:35;6.80;99.90
52181;DHT22;38158;53.338;6.514;2023-12-20T05:47:01;6.80;99.90
52181;DHT22;38158;53.338;6.514;2023-12-20T05:49:27;6.80;99.90
52181;DHT22;38158;53.338;6.514;2023-12-20T05:51:53;6.80;99.90
52181;DHT22;38158;53.338;6.514;2023-12-20T05:54:19;6.80;99.90
52181;DHT22;38158;53.338;6.514;2023-12-20T05:56:45;6.80;99.90
52181;DHT22;38158;53.338;6.514;2023-12-20T05:59:10;7.10;99.90
52181;DHT22;38158;53.338;6.514;2023-12-20T06:01:36;6.80;99.90
52181;DHT22;38158;53.338;6.514;2023-12-20T06:04:02;6.80;99.90
52181;DHT22;38158;53.338;6.514;2023-12-20T06:06:28;6.90;99.90
52181;DHT22;38158;53.338;6.514;2023-12-20T06:08:54;6.90;99.90
52181;DHT22;38158;53.338;6.514;2023-12-20T06:11:20;6.80;99.90
52181;DHT22;38158;53.338;6.514;2023-12-20T06:13:45;6.90;99.90
52181;DHT22;38158;53.338;6.514;2023-12-20T06:16:11;6.90;99.90
52181;DHT22;38158;53.338;6.514;2023-12-20T06:18:36;6.90;99.90
52181;DHT22;38158;53.338;6.514;2023-12-20T06:21:03;6.90;99.90
52181;DHT22;38158;53.338;6.514;2023-12-20T06:23:28;6.90;99.90
52181;DHT22;38158;53.338;6.514;2023-12-20T06:25:54;6.90;99.90
52181;DHT22;38158;53.338;6.514;2023-12-20T06:28:20;7.30;99.90
52181;DHT22;38158;53.338;6.514;2023-12-20T06:30:45;7.20;99.90
52181;DHT22;38158;53.338;6.514;2023-12-20T06:33:14;7.50;99.90
52181;DHT22;38158;53.338;6.514;2023-12-20T06:35:40;6.90;99.90
52181;DHT22;38158;53.338;6.514;2023-12-20T06:38:05;6.90;99.90
52181;DHT22;38158;53.338;6.514;2023-12-20T06:40:31;6.90;99.90
52181;DHT22;38158;53.338;6.514;2023-12-20T06:42:57;7.00;99.90
52181;DHT22;38158;53.338;6.514;2023-12-20T06:45:22;7.40;99.90
52181;DHT22;38158;53.338;6.514;2023-12-20T06:47:48;7.00;99.90
52181;DHT22;38158;53.338;6.514;2023-12-20T06:50:14;7.00;99.90
52181;DHT22;38158;53.338;6.514;2023-12-20T06:52:39;7.00;99.90
52181;DHT22;38158;53.338;6.514;2023-12-20T06:55:05;7.00;99.90
52181;DHT22;38158;53.338;6.514;2023-12-20T06:57:31;7.00;99.90
52181;DHT22;38158;53.338;6.514;2023-12-20T06:59:57;7.30;99.90
52181;DHT22;38158;53.338;6.514;2023-12-20T07:02:23;7.10;99.90
52181;DHT22;38158;53.338;6.514;2023-12-20T07:04:49;7.00;99.90
52181;DHT22;38158;53.338;6.514;2023-12-20T07:07:14;7.10;99.90
52181;DHT22;38158;53.338;6.514;2023-12-20T07:09:40;7.10;99.90
52181;DHT22;38158;53.338;6.514;2023-12-20T07:12:08;7.10;99.90
52181;DHT22;38158;53.338;6.514;2023-12-20T07:14:37;7.10;99.90
52181;DHT22;38158;53.338;6.514;2023-12-20T07:17:03;7.10;99.90
52181;DHT22;38158;53.338;6.514;2023-12-20T07:19:28;7.10;99.90
52181;DHT22;38158;53.338;6.514;2023-12-20T07:21:54;7.10;99.90
52181;DHT22;38158;53.338;6.514;2023-12-20T07:24:20;7.10;99.90
52181;DHT22;38158;53.338;6.514;2023-12-20T07:26:46;7.60;99.90
52181;DHT22;38158;53.338;6.514;2023-12-20T07:29:11;7.20;99.90
52181;DHT22;38158;53.338;6.514;2023-12-20T07:31:37;7.60;99.90
52181;DHT22;38158;53.338;6.514;2023-12-20T07:34:03;7.20;99.90
52181;DHT22;38158;53.338;6.514;2023-12-20T07:36:29;7.30;99.90
52181;DHT22;38158;53.338;6.514;2023-12-20T07:38:54;7.20;99.90
52181;DHT22;38158;53.338;6.514;2023-12-20T07:41:20;7.60;99.90
52181;DHT22;38158;53.338;6.514;2023-12-20T07:43:47;7.20;99.90
52181;DHT22;38158;53.338;6.514;2023-12-20T07:46:12;7.60;99.90
52181;DHT22;38158;53.338;6.514;2023-12-20T07:48:38;7.30;99.90
52181;DHT22;38158;53.338;6.514;2023-12-20T07:51:04;7.30;99.90
52181;DHT22;38158;53.338;6.514;2023-12-20T07:53:32;7.30;99.90
52181;DHT22;38158;53.338;6.514;2023-12-20T07:55:58;7.30;99.90
52181;DHT22;38158;53.338;6.514;2023-12-20T07:58:24;7.30;99.90
52181;DHT22;38158;53.338;6.514;2023-12-20T08:00:49;7.60;99.90
52181;DHT22;38158;53.338;6.514;2023-12-20T08:03:15;7.30;99.90
52181;DHT22;38158;53.338;6.514;2023-12-20T08:05:41;7.30;99.90
52181;DHT22;38158;53.338;6.514;2023-12-20T08:08:07;7.90;99.90
52181;DHT22;38158;53.338;6.514;2023-12-20T08:10:33;7.30;99.90
52181;DHT22;38158;53.338;6.514;2023-12-20T08:12:58;7.40;99.90
52181;DHT22;38158;53.338;6.514;2023-12-20T08:15:24;7.40;99.90
52181;DHT22;38158;53.338;6.514;2023-12-20T08:17:50;7.50;99.90
52181;DHT22;38158;53.338;6.514;2023-12-20T08:20:16;7.50;99.90
52181;DHT22;38158;53.338;6.514;2023-12-20T08:22:42;7.30;99.90
52181;DHT22;38158;53.338;6.514;2023-12-20T08:25:08;6.70;99.90
52181;DHT22;38158;53.338;6.514;2023-12-20T08:27:39;6.30;99.90
52181;DHT22;38158;53.338;6.514;2023-12-20T08:30:05;6.30;99.90
52181;DHT22;38158;53.338;6.514;2023-12-20T08:32:31;5.90;99.90
52181;DHT22;38158;53.338;6.514;2023-12-20T08:34:57;5.70;99.90
52181;DHT22;38158;53.338;6.514;2023-12-20T08:37:23;6.00;99.90
52181;DHT22;38158;53.338;6.514;2023-12-20T08:39:49;5.60;99.90
52181;DHT22;38158;53.338;6.514;2023-12-20T08:42:15;5.90;99.90
52181;DHT22;38158;53.338;6.514;2023-12-20T08:44:40;5.50;99.90
52181;DHT22;38158;53.338;6.514;2023-12-20T08:47:06;5.50;99.90
52181;DHT22;38158;53.338;6.514;2023-12-20T08:49:32;5.50;99.90
52181;DHT22;38158;53.338;6.514;2023-12-20T08:51:57;5.50;99.90
52181;DHT22;38158;53.338;6.514;2023-12-20T08:54:23;6.40;99.90
52181;DHT22;38158;53.338;6.514;2023-12-20T08:56:49;5.70;99.90
52181;DHT22;38158;53.338;6.514;2023-12-20T08:59:14;6.20;99.90
52181;DHT22;38158;53.338;6.514;2023-12-20T09:01:40;5.70;99.90
52181;DHT22;38158;53.338;6.514;2023-12-20T09:04:05;5.20;99.90
52181;DHT22;38158;53.338;6.514;2023-12-20T09:06:32;5.50;99.90
52181;DHT22;38158;53.338;6.514;2023-12-20T09:08:57;5.20;99.90
52181;DHT22;38158;53.338;6.514;2023-12-20T09:11:23;6.70;99.90
52181;DHT22;38158;53.338;6.514;2023-12-20T09:13:48;5.30;99.90
52181;DHT22;38158;53.338;6.514;2023-12-20T09:16:14;5.30;99.90
52181;DHT22;38158;53.338;6.514;2023-12-20T09:18:41;5.70;99.90
52181;DHT22;38158;53.338;6.514;2023-12-20T09:21:07;6.00;99.90
52181;DHT22;38158;53.338;6.514;2023-12-20T09:23:33;6.60;99.90
52181;DHT22;38158;53.338;6.514;2023-12-20T09:26:00;5.60;99.90
52181;DHT22;38158;53.338;6.514;2023-12-20T09:28:26;5.60;99.90
52181;DHT22;38158;53.338;6.514;2023-12-20T09:30:52;5.60;99.90
52181;DHT22;38158;53.338;6.514;2023-12-20T09:33:18;5.70;99.90
52181;DHT22;38158;53.338;6.514;2023-12-20T09:35:44;5.80;99.90
52181;DHT22;38158;53.338;6.514;2023-12-20T09:38:10;5.70;99.90
52181;DHT22;38158;53.338;6.514;2023-12-20T09:40:36;5.80;99.90
52181;DHT22;38158;53.338;6.514;2023-12-20T09:43:12;5.80;99.90
52181;DHT22;38158;53.338;6.514;2023-12-20T09:45:39;5.80;99.90
52181;DHT22;38158;53.338;6.514;2023-12-20T09:48:06;6.10;99.90
52181;DHT22;38158;53.338;6.514;2023-12-20T09:50:32;5.90;99.90
52181;DHT22;38158;53.338;6.514;2023-12-20T09:53:01;6.00;99.90
52181;DHT22;38158;53.338;6.514;2023-12-20T09:55:30;6.40;99.90
52181;DHT22;38158;53.338;6.514;2023-12-20T09:57:56;6.00;99.90
52181;DHT22;38158;53.338;6.514;2023-12-20T10:00:21;6.40;99.90
52181;DHT22;38158;53.338;6.514;2023-12-20T10:02:59;6.40;99.90
52181;DHT22;38158;53.338;6.514;2023-12-20T10:05:30;6.20;99.90
52181;DHT22;38158;53.338;6.514;2023-12-20T10:07:57;6.80;99.90
52181;DHT22;38158;53.338;6.514;2023-12-20T10:10:23;6.40;99.90
52181;DHT22;38158;53.338;6.514;2023-12-20T10:13:05;6.50;99.90
52181;DHT22;38158;53.338;6.514;2023-12-20T10:15:35;6.60;99.90
52181;DHT22;38158;53.338;6.514;2023-12-20T10:18:02;6.60;99.90
52181;DHT22;38158;53.338;6.514;2023-12-20T10:20:28;6.60;99.90
52181;DHT22;38158;53.338;6.514;2023-12-20T10:22:55;7.00;99.90
52181;DHT22;38158;53.338;6.514;2023-12-20T10:25:21;6.70;99.90
52181;DHT22;38158;53.338;6.514;2023-12-20T10:27:47;7.70;99.90
52181;DHT22;38158;53.338;6.514;2023-12-20T10:30:14;6.90;99.90
52181;DHT22;38158;53.338;6.514;2023-12-20T10:32:40;6.90;99.90
52181;DHT22;38158;53.338;6.514;2023-12-20T10:35:06;6.90;99.90
52181;DHT22;38158;53.338;6.514;2023-12-20T10:37:36;6.80;99.90
52181;DHT22;38158;53.338;6.514;2023-12-20T10:40:04;7.80;99.90
52181;DHT22;38158;53.338;6.514;2023-12-20T10:42:32;6.70;99.90
52181;DHT22;38158;53.338;6.514;2023-12-20T10:45:00;6.70;99.90
52181;DHT22;38158;53.338;6.514;2023-12-20T10:47:26;7.30;99.90
52181;DHT22;38158;53.338;6.514;2023-12-20T10:49:54;6.80;99.90
52181;DHT22;38158;53.338;6.514;2023-12-20T10:52:23;7.20;99.90
52181;DHT22;38158;53.338;6.514;2023-12-20T10:54:49;7.00;99.90
52181;DHT22;38158;53.338;6.514;2023-12-20T10:57:18;7.40;99.90
52181;DHT22;38158;53.338;6.514;2023-12-20T10:59:45;7.50;99.90
52181;DHT22;38158;53.338;6.514;2023-12-20T11:02:13;7.30;99.90
52181;DHT22;38158;53.338;6.514;2023-12-20T11:04:50;7.40;99.90
52181;DHT22;38158;53.338;6.514;2023-12-20T11:07:29;7.30;99.90
52181;DHT22;38158;53.338;6.514;2023-12-20T11:10:00;7.20;99.90
52181;DHT22;38158;53.338;6.514;2023-12-20T11:12:37;7.10;99.90
52181;DHT22;38158;53.338;6.514;2023-12-20T11:15:06;7.20;99.90
52181;DHT22;38158;53.338;6.514;2023-12-20T11:17:32;7.00;99.90
52181;DHT22;38158;53.338;6.514;2023-12-20T11:22:25;7.70;99.90
52181;DHT22;38158;53.338;6.514;2023-12-20T11:24:52;6.90;99.90
52181;DHT22;38158;53.338;6.514;2023-12-20T11:27:19;7.30;99.90
52181;DHT22;38158;53.338;6.514;2023-12-20T11:29:52;8.10;99.90
52181;DHT22;38158;53.338;6.514;2023-12-20T11:34:56;7.10;99.90
52181;DHT22;38158;53.338;6.514;2023-12-20T11:37:22;7.00;99.90
52181;DHT22;38158;53.338;6.514;2023-12-20T11:39:55;7.00;99.90
52181;DHT22;38158;53.338;6.514;2023-12-20T11:42:22;7.20;99.90
52181;DHT22;38158;53.338;6.514;2023-12-20T11:44:47;7.10;99.90
52181;DHT22;38158;53.338;6.514;2023-12-20T11:47:13;7.10;99.90
52181;DHT22;38158;53.338;6.514;2023-12-20T11:49:41;7.40;99.90
52181;DHT22;38158;53.338;6.514;2023-12-20T11:52:06;7.20;99.90
52181;DHT22;38158;53.338;6.514;2023-12-20T11:54:32;8.20;99.90
52181;DHT22;38158;53.338;6.514;2023-12-20T11:56:58;7.10;99.90
52181;DHT22;38158;53.338;6.514;2023-12-20T11:59:24;7.30;99.90
52181;DHT22;38158;53.338;6.514;2023-12-20T12:01:50;7.80;99.90
52181;DHT22;38158;53.338;6.514;2023-12-20T12:04:16;7.10;99.90
52181;DHT22;38158;53.338;6.514;2023-12-20T12:06:44;7.10;99.90
52181;DHT22;38158;53.338;6.514;2023-12-20T12:09:10;7.10;99.90
52181;DHT22;38158;53.338;6.514;2023-12-20T12:11:35;7.10;99.90
52181;DHT22;38158;53.338;6.514;2023-12-20T12:14:01;7.20;99.90
52181;DHT22;38158;53.338;6.514;2023-12-20T12:16:27;7.30;99.90
52181;DHT22;38158;53.338;6.514;2023-12-20T12:18:56;7.00;99.90
52181;DHT22;38158;53.338;6.514;2023-12-20T12:21:23;7.00;99.90
52181;DHT22;38158;53.338;6.514;2023-12-20T12:23:48;7.00;99.90
52181;DHT22;38158;53.338;6.514;2023-12-20T12:26:14;7.00;99.90
52181;DHT22;38158;53.338;6.514;2023-12-20T12:28:41;7.00;99.90
52181;DHT22;38158;53.338;6.514;2023-12-20T12:31:07;7.00;99.90
52181;DHT22;38158;53.338;6.514;2023-12-20T12:33:33;7.00;99.90
52181;DHT22;38158;53.338;6.514;2023-12-20T12:36:00;7.00;99.90
52181;DHT22;38158;53.338;6.514;2023-12-20T12:38:26;7.10;99.90
52181;DHT22;38158;53.338;6.514;2023-12-20T12:40:53;7.10;99.90
52181;DHT22;38158;53.338;6.514;2023-12-20T12:43:19;7.30;99.90
52181;DHT22;38158;53.338;6.514;2023-12-20T12:45:45;7.10;99.90
52181;DHT22;38158;53.338;6.514;2023-12-20T12:48:10;7.20;99.90
52181;DHT22;38158;53.338;6.514;2023-12-20T12:50:36;7.20;99.90
52181;DHT22;38158;53.338;6.514;2023-12-20T12:53:02;7.30;99.90
52181;DHT22;38158;53.338;6.514;2023-12-20T12:55:28;7.30;99.90
52181;DHT22;38158;53.338;6.514;2023-12-20T12:57:54;7.20;99.90
52181;DHT22;38158;53.338;6.514;2023-12-20T13:00:20;7.20;99.90
52181;DHT22;38158;53.338;6.514;2023-12-20T13:02:47;7.20;99.90
52181;DHT22;38158;53.338;6.514;2023-12-20T13:05:12;7.20;99.90
52181;DHT22;38158;53.338;6.514;2023-12-20T13:07:38;7.20;99.90
52181;DHT22;38158;53.338;6.514;2023-12-20T13:10:05;7.40;99.90
52181;DHT22;38158;53.338;6.514;2023-12-20T13:12:31;7.10;99.90
52181;DHT22;38158;53.338;6.514;2023-12-20T13:14:57;7.10;99.90
52181;DHT22;38158;53.338;6.514;2023-12-20T13:17:23;7.10;99.90
52181;DHT22;38158;53.338;6.514;2023-12-20T13:19:49;7.10;99.90
52181;DHT22;38158;53.338;6.514;2023-12-20T13:22:15;7.40;99.90
52181;DHT22;38158;53.338;6.514;2023-12-20T13:24:41;7.20;99.90
52181;DHT22;38158;53.338;6.514;2023-12-20T13:27:10;7.90;99.90
52181;DHT22;38158;53.338;6.514;2023-12-20T13:29:35;7.20;99.90
52181;DHT22;38158;53.338;6.514;2023-12-20T13:32:01;7.20;99.90
52181;DHT22;38158;53.338;6.514;2023-12-20T13:34:29;7.30;99.90
52181;DHT22;38158;53.338;6.514;2023-12-20T13:36:55;8.00;99.90
52181;DHT22;38158;53.338;6.514;2023-12-20T13:39:22;7.80;99.90
52181;DHT22;38158;53.338;6.514;2023-12-20T13:41:47;7.10;99.90
52181;DHT22;38158;53.338;6.514;2023-12-20T13:44:13;7.30;99.90
52181;DHT22;38158;53.338;6.514;2023-12-20T13:46:41;7.00;99.90
52181;DHT22;38158;53.338;6.514;2023-12-20T13:49:07;6.90;99.90
52181;DHT22;38158;53.338;6.514;2023-12-20T13:51:32;6.90;99.90
52181;DHT22;38158;53.338;6.514;2023-12-20T13:53:58;7.20;99.90
52181;DHT22;38158;53.338;6.514;2023-12-20T13:56:25;7.30;99.90
52181;DHT22;38158;53.338;6.514;2023-12-20T13:58:50;7.40;99.90
52181;DHT22;38158;53.338;6.514;2023-12-20T14:01:17;7.70;99.90
52181;DHT22;38158;53.338;6.514;2023-12-20T14:03:42;6.80;99.90
52181;DHT22;38158;53.338;6.514;2023-12-20T14:06:08;6.70;99.90
52181;DHT22;38158;53.338;6.514;2023-12-20T14:08:34;7.00;99.90
52181;DHT22;38158;53.338;6.514;2023-12-20T14:10:59;6.70;99.90
52181;DHT22;38158;53.338;6.514;2023-12-20T14:13:26;5.40;99.90
52181;DHT22;38158;53.338;6.514;2023-12-20T14:15:52;6.80;99.90
52181;DHT22;38158;53.338;6.514;2023-12-20T14:18:19;6.60;99.90
52181;DHT22;38158;53.338;6.514;2023-12-20T14:20:45;7.20;99.90
52181;DHT22;38158;53.338;6.514;2023-12-20T14:23:12;6.70;99.90
52181;DHT22;38158;53.338;6.514;2023-12-20T14:25:41;6.60;99.90
52181;DHT22;38158;53.338;6.514;2023-12-20T14:28:07;6.60;99.90
52181;DHT22;38158;53.338;6.514;2023-12-20T14:30:33;6.50;99.90
52181;DHT22;38158;53.338;6.514;2023-12-20T14:33:00;6.50;99.90
52181;DHT22;38158;53.338;6.514;2023-12-20T14:35:26;6.40;99.90
52181;DHT22;38158;53.338;6.514;2023-12-20T14:37:51;6.80;99.90
52181;DHT22;38158;53.338;6.514;2023-12-20T14:40:17;6.40;99.90
52181;DHT22;38158;53.338;6.514;2023-12-20T14:42:44;6.30;99.90
52181;DHT22;38158;53.338;6.514;2023-12-20T14:45:10;6.30;99.90
52181;DHT22;38158;53.338;6.514;2023-12-20T14:47:36;6.30;99.90
52181;DHT22;38158;53.338;6.514;2023-12-20T14:50:05;7.00;99.90
52181;DHT22;38158;53.338;6.514;2023-12-20T14:52:32;6.20;99.90
52181;DHT22;38158;53.338;6.514;2023-12-20T14:54:59;6.90;99.90
52181;DHT22;38158;53.338;6.514;2023-12-20T14:57:25;6.20;99.90
52181;DHT22;38158;53.338;6.514;2023-12-20T14:59:50;6.10;99.90
52181;DHT22;38158;53.338;6.514;2023-12-20T15:02:16;6.50;99.90
52181;DHT22;38158;53.338;6.514;2023-12-20T15:04:41;6.50;99.90
52181;DHT22;38158;53.338;6.514;2023-12-20T15:07:07;6.50;99.90
52181;DHT22;38158;53.338;6.514;2023-12-20T15:09:33;6.10;99.90
52181;DHT22;38158;53.338;6.514;2023-12-20T15:11:58;6.10;99.90
52181;DHT22;38158;53.338;6.514;2023-12-20T15:14:25;7.00;99.90
52181;DHT22;38158;53.338;6.514;2023-12-20T15:16:54;7.00;99.90
52181;DHT22;38158;53.338;6.514;2023-12-20T15:19:21;6.10;99.90
52181;DHT22;38158;53.338;6.514;2023-12-20T15:21:47;6.10;99.90
52181;DHT22;38158;53.338;6.514;2023-12-20T15:24:13;6.60;99.90
52181;DHT22;38158;53.338;6.514;2023-12-20T15:26:41;6.10;99.90
52181;DHT22;38158;53.338;6.514;2023-12-20T15:29:07;6.10;99.90
52181;DHT22;38158;53.338;6.514;2023-12-20T15:31:36;7.00;99.90
52181;DHT22;38158;53.338;6.514;2023-12-20T15:34:02;6.20;99.90
52181;DHT22;38158;53.338;6.514;2023-12-20T15:36:28;6.20;99.90
52181;DHT22;38158;53.338;6.514;2023-12-20T15:38:54;6.20;99.90
52181;DHT22;38158;53.338;6.514;2023-12-20T15:41:21;7.20;99.90
52181;DHT22;38158;53.338;6.514;2023-12-20T15:43:47;6.30;99.90